sensor_id;sensor_type;location;lat;lon;timestamp;pressure;altitude;pressure_sealevel;temperature;humidity
76074;BME280;64776;42.636;24.358;2023-12-20T00:02:56;90473.25;;;-4.23;93.27
76074;BME280;64776;42.636;24.358;2023-12-20T00:05:58;90473.22;;;-4.26;94.60
76074;BME280;64776;42.636;24.358;2023-12-20T00:08:59;90473.22;;;-4.26;94.25
76074;BME280;64776;42.636;24.358;2023-12-20T00:12:00;90482.88;;;-4.30;94.22
76074;BME280;64776;42.636;24.358;2023-12-20T00:15:00;90475.09;;;-4.48;94.31
76074;BME280;64776;42.636;24.358;2023-12-20T00:18:01;90476.56;;;-4.54;93.88
76074;BME280;64776;42.636;24.358;2023-12-20T00:21:04;90471.72;;;-4.48;93.55
76074;BME280;64776;42.636;24.358;2023-12-20T00:24:05;90471.34;;;-4.57;92.74
76074;BME280;64776;42.636;24.358;2023-12-20T00:27:05;90469.09;;;-4.55;93.75
76074;BME280;64776;42.636;24.358;2023-12-20T00:30:07;90464.28;;;-4.53;93.27
76074;BME280;64776;42.636;24.358;2023-12-20T00:33:08;90460.56;;;-4.59;92.94
76074;BME280;64776;42.636;24.358;2023-12-20T00:36:10;90455.75;;;-4.54;92.68
76074;BME280;64776;42.636;24.358;2023-12-20T00:39:11;90450.16;;;-4.56;93.25
76074;BME280;64776;42.636;24.358;2023-12-20T00:42:12;90444.22;;;-4.56;93.39
76074;BME280;64776;42.636;24.358;2023-12-20T00:45:12;90446.06;;;-4.53;92.42
76074;BME280;64776;42.636;24.358;2023-12-20T00:48:13;90440.09;;;-4.61;92.30
76074;BME280;64776;42.636;24.358;2023-12-20T00:51:15;90438.97;;;-4.63;92.17
76074;BME280;64776;42.636;24.358;2023-12-20T00:54:16;90443.84;;;-4.58;93.19
76074;BME280;64776;42.636;24.358;2023-12-20T00:57:17;90431.91;;;-4.59;93.08
76074;BME280;64776;42.636;24.358;2023-12-20T01:00:18;90430.06;;;-4.59;92.85
76074;BME280;64776;42.636;24.358;2023-12-20T01:03:19;90430.81;;;-4.62;93.60
76074;BME280;64776;42.636;24.358;2023-12-20T01:06:21;90424.88;;;-4.73;93.61
76074;BME280;64776;42.636;24.358;2023-12-20T01:09:21;90421.16;;;-4.68;94.35
76074;BME280;64776;42.636;24.358;2023-12-20T01:12:22;90421.91;;;-4.64;92.80
76074;BME280;64776;42.636;24.358;2023-12-20T01:15:23;90411.13;;;-4.66;93.11
76074;BME280;64776;42.636;24.358;2023-12-20T01:18:24;90411.84;;;-4.73;93.48
76074;BME280;64776;42.636;24.358;2023-12-20T01:21:26;90411.84;;;-4.73;93.78
76074;BME280;64776;42.636;24.358;2023-12-20T01:24:27;90404.78;;;-4.79;93.33
76074;BME280;64776;42.636;24.358;2023-12-20T01:27:28;90405.53;;;-4.82;94.32
76074;BME280;64776;42.636;24.358;2023-12-20T01:30:28;90402.91;;;-4.89;94.42
76074;BME280;64776;42.636;24.358;2023-12-20T01:33:29;90390.28;;;-4.80;93.89
76074;BME280;64776;42.636;24.358;2023-12-20T01:36:32;90387.69;;;-4.80;94.12
76074;BME280;64776;42.636;24.358;2023-12-20T01:39:33;90375.03;;;-4.82;93.82
76074;BME280;64776;42.636;24.358;2023-12-20T01:42:33;90374.69;;;-4.91;94.08
76074;BME280;64776;42.636;24.358;2023-12-20T01:45:34;90373.91;;;-4.88;93.77
76074;BME280;64776;42.636;24.358;2023-12-20T01:48:35;90364.25;;;-4.98;93.62
76074;BME280;64776;42.636;24.358;2023-12-20T01:51:38;90365.75;;;-5.11;94.68
76074;BME280;64776;42.636;24.358;2023-12-20T01:54:40;90365.38;;;-4.99;93.90
76074;BME280;64776;42.636;24.358;2023-12-20T01:57:42;90356.84;;;-4.92;94.65
76074;BME280;64776;42.636;24.358;2023-12-20T02:00:44;90353.47;;;-4.89;93.63
76074;BME280;64776;42.636;24.358;2023-12-20T02:03:45;90347.53;;;-5.01;93.00
76074;BME280;64776;42.636;24.358;2023-12-20T02:06:48;90340.84;;;-5.05;92.72
76074;BME280;64776;42.636;24.358;2023-12-20T02:09:52;90339.34;;;-5.03;92.74
76074;BME280;64776;42.636;24.358;2023-12-20T02:12:53;90324.47;;;-4.99;92.76
76074;BME280;64776;42.636;24.358;2023-12-20T02:15:54;90322.63;;;-5.02;93.10
76074;BME280;64776;42.636;24.358;2023-12-20T02:18:55;90321.88;;;-4.99;93.71
76074;BME280;64776;42.636;24.358;2023-12-20T02:22:07;90316.69;;;-4.99;93.71
76074;BME280;64776;42.636;24.358;2023-12-20T02:25:08;90323.75;;;-4.99;93.02
76074;BME280;64776;42.636;24.358;2023-12-20T02:28:09;90308.91;;;-5.06;92.53
76074;BME280;64776;42.636;24.358;2023-12-20T02:31:10;90306.66;;;-5.04;93.24
76074;BME280;64776;42.636;24.358;2023-12-20T02:34:10;90300.72;;;-5.08;92.33
76074;BME280;64776;42.636;24.358;2023-12-20T02:37:12;90302.94;;;-5.06;92.55
76074;BME280;64776;42.636;24.358;2023-12-20T02:40:13;90290.31;;;-5.15;93.61
76074;BME280;64776;42.636;24.358;2023-12-20T02:43:14;90288.84;;;-5.16;93.53
76074;BME280;64776;42.636;24.358;2023-12-20T02:46:16;90288.06;;;-5.13;93.10
76074;BME280;64776;42.636;24.358;2023-12-20T02:49:17;90294.38;;;-5.17;92.81
76074;BME280;64776;42.636;24.358;2023-12-20T02:52:19;90285.13;;;-5.22;92.49
76074;BME280;64776;42.636;24.358;2023-12-20T02:55:20;90282.16;;;-5.20;93.69
76074;BME280;64776;42.636;24.358;2023-12-20T02:58:21;90275.47;;;-5.18;93.71
76074;BME280;64776;42.636;24.358;2023-12-20T03:01:21;90285.13;;;-5.18;92.98
76074;BME280;64776;42.636;24.358;2023-12-20T03:04:22;90280.66;;;-5.18;92.84
76074;BME280;64776;42.636;24.358;2023-12-20T03:07:24;90282.53;;;-5.22;93.70
76074;BME280;64776;42.636;24.358;2023-12-20T03:10:25;90276.22;;;-5.28;93.33
76074;BME280;64776;42.636;24.358;2023-12-20T03:13:26;90285.13;;;-5.32;92.81
76074;BME280;64776;42.636;24.358;2023-12-20T03:16:26;90284.34;;;-5.29;92.57
76074;BME280;64776;42.636;24.358;2023-12-20T03:19:27;90279.91;;;-5.36;93.22
76074;BME280;64776;42.636;24.358;2023-12-20T03:22:29;90271.00;;;-5.31;93.18
76074;BME280;64776;42.636;24.358;2023-12-20T03:25:30;90261.34;;;-5.27;93.63
76074;BME280;64776;42.636;24.358;2023-12-20T03:28:31;90266.91;;;-5.36;92.70
76074;BME280;64776;42.636;24.358;2023-12-20T03:31:32;90263.56;;;-5.33;92.95
76074;BME280;64776;42.636;24.358;2023-12-20T03:34:33;90259.50;;;-5.34;93.09
76074;BME280;64776;42.636;24.358;2023-12-20T03:37:35;90261.34;;;-5.34;93.04
76074;BME280;64776;42.636;24.358;2023-12-20T03:40:35;90260.22;;;-5.33;92.83
76074;BME280;64776;42.636;24.358;2023-12-20T03:43:37;90257.25;;;-5.32;93.05
76074;BME280;64776;42.636;24.358;2023-12-20T03:46:37;90256.88;;;-5.30;93.04
76074;BME280;64776;42.636;24.358;2023-12-20T03:49:38;90253.16;;;-5.33;92.18
76074;BME280;64776;42.636;24.358;2023-12-20T03:52:40;90253.91;;;-5.46;92.33
76074;BME280;64776;42.636;24.358;2023-12-20T03:55:41;90258.38;;;-5.50;92.28
76074;BME280;64776;42.636;24.358;2023-12-20T03:58:42;90253.91;;;-5.39;91.80
76074;BME280;64776;42.636;24.358;2023-12-20T04:01:43;90253.16;;;-5.54;92.71
76074;BME280;64776;42.636;24.358;2023-12-20T04:04:44;90246.47;;;-5.41;92.60
76074;BME280;64776;42.636;24.358;2023-12-20T04:07:46;90244.25;;;-5.49;93.87
76074;BME280;64776;42.636;24.358;2023-12-20T04:10:47;90234.97;;;-5.50;94.01
76074;BME280;64776;42.636;24.358;2023-12-20T04:13:47;90245.75;;;-5.59;93.66
76074;BME280;64776;42.636;24.358;2023-12-20T04:16:48;90242.75;;;-5.64;93.92
76074;BME280;64776;42.636;24.358;2023-12-20T04:19:49;90244.97;;;-5.66;93.35
76074;BME280;64776;42.636;24.358;2023-12-20T04:22:51;90234.94;;;-5.68;93.55
76074;BME280;64776;42.636;24.358;2023-12-20T04:25:52;90235.31;;;-5.77;92.90
76074;BME280;64776;42.636;24.358;2023-12-20T04:28:52;90236.81;;;-5.65;93.36
76074;BME280;64776;42.636;24.358;2023-12-20T04:31:53;90239.78;;;-5.66;93.46
76074;BME280;64776;42.636;24.358;2023-12-20T04:35:00;90219.00;;;-5.66;93.35
76074;BME280;64776;42.636;24.358;2023-12-20T04:38:02;90222.72;;;-5.57;93.49
76074;BME280;64776;42.636;24.358;2023-12-20T04:41:03;90212.31;;;-5.50;93.42
76074;BME280;64776;42.636;24.358;2023-12-20T04:44:04;90209.00;;;-5.50;93.18
76074;BME280;64776;42.636;24.358;2023-12-20T04:47:04;90211.94;;;-5.52;93.34
76074;BME280;64776;42.636;24.358;2023-12-20T04:50:06;90211.59;;;-5.61;93.30
76074;BME280;64776;42.636;24.358;2023-12-20T04:53:09;90214.53;;;-5.66;93.53
76074;BME280;64776;42.636;24.358;2023-12-20T04:56:09;90210.09;;;-5.62;93.91
76074;BME280;64776;42.636;24.358;2023-12-20T04:59:10;90207.47;;;-5.58;93.30
76074;BME280;64776;42.636;24.358;2023-12-20T05:02:11;90206.38;;;-5.64;93.74
76074;BME280;64776;42.636;24.358;2023-12-20T05:05:12;90207.84;;;-5.70;93.48
76074;BME280;64776;42.636;24.358;2023-12-20T05:08:14;90203.78;;;-5.68;92.58
76074;BME280;64776;42.636;24.358;2023-12-20T05:11:15;90198.97;;;-5.94;92.42
76074;BME280;64776;42.636;24.358;2023-12-20T05:14:15;90191.19;;;-5.84;92.12
76074;BME280;64776;42.636;24.358;2023-12-20T05:17:16;90193.75;;;-5.80;93.90
76074;BME280;64776;42.636;24.358;2023-12-20T05:20:18;90192.28;;;-5.78;94.27
76074;BME280;64776;42.636;24.358;2023-12-20T05:23:20;90187.81;;;-5.70;94.61
76074;BME280;64776;42.636;24.358;2023-12-20T05:26:21;90190.41;;;-5.66;94.72
76074;BME280;64776;42.636;24.358;2023-12-20T05:29:22;90185.22;;;-5.70;94.46
76074;BME280;64776;42.636;24.358;2023-12-20T05:32:23;90184.13;;;-5.69;94.29
76074;BME280;64776;42.636;24.358;2023-12-20T05:35:23;90178.91;;;-5.69;94.39
76074;BME280;64776;42.636;24.358;2023-12-20T05:38:26;90168.16;;;-5.71;93.74
76074;BME280;64776;42.636;24.358;2023-12-20T05:41:27;90168.50;;;-5.76;94.11
76074;BME280;64776;42.636;24.358;2023-12-20T05:44:28;90165.94;;;-5.80;94.05
76074;BME280;64776;42.636;24.358;2023-12-20T05:47:28;90160.38;;;-5.71;93.90
76074;BME280;64776;42.636;24.358;2023-12-20T05:50:29;90173.72;;;-5.69;93.16
76074;BME280;64776;42.636;24.358;2023-12-20T05:53:31;90167.03;;;-5.70;93.00
76074;BME280;64776;42.636;24.358;2023-12-20T05:56:32;90162.56;;;-5.66;92.65
76074;BME280;64776;42.636;24.358;2023-12-20T05:59:33;90162.56;;;-5.80;92.64
76074;BME280;64776;42.636;24.358;2023-12-20T06:02:33;90161.47;;;-6.07;93.26
76074;BME280;64776;42.636;24.358;2023-12-20T06:05:34;90154.81;;;-5.94;93.16
76074;BME280;64776;42.636;24.358;2023-12-20T06:08:36;90145.16;;;-5.87;92.31
76074;BME280;64776;42.636;24.358;2023-12-20T06:11:37;90145.16;;;-5.90;92.29
76074;BME280;64776;42.636;24.358;2023-12-20T06:14:38;90141.81;;;-5.87;92.72
76074;BME280;64776;42.636;24.358;2023-12-20T06:17:39;90140.31;;;-5.78;92.28
76074;BME280;64776;42.636;24.358;2023-12-20T06:20:39;90135.84;;;-5.66;92.67
76074;BME280;64776;42.636;24.358;2023-12-20T06:23:41;90140.31;;;-5.56;93.04
76074;BME280;64776;42.636;24.358;2023-12-20T06:26:42;90145.88;;;-5.51;93.73
76074;BME280;64776;42.636;24.358;2023-12-20T06:29:43;90140.31;;;-5.53;93.15
76074;BME280;64776;42.636;24.358;2023-12-20T06:32:44;90139.53;;;-5.43;93.63
76074;BME280;64776;42.636;24.358;2023-12-20T06:35:45;90134.72;;;-5.34;93.01
76074;BME280;64776;42.636;24.358;2023-12-20T06:38:47;90135.78;;;-5.21;93.24
76074;BME280;64776;42.636;24.358;2023-12-20T06:41:47;90135.41;;;-5.16;92.03
76074;BME280;64776;42.636;24.358;2023-12-20T06:44:48;90135.75;;;-5.17;92.86
76074;BME280;64776;42.636;24.358;2023-12-20T06:47:49;90144.69;;;-5.15;92.45
76074;BME280;64776;42.636;24.358;2023-12-20T06:50:50;90136.13;;;-5.12;92.24
76074;BME280;64776;42.636;24.358;2023-12-20T06:53:52;90130.53;;;-5.00;93.03
76074;BME280;64776;42.636;24.358;2023-12-20T06:56:53;90127.50;;;-4.87;92.77
76074;BME280;64776;42.636;24.358;2023-12-20T06:59:53;90124.50;;;-4.79;92.61
76074;BME280;64776;42.636;24.358;2023-12-20T07:02:54;90125.19;;;-4.64;92.66
76074;BME280;64776;42.636;24.358;2023-12-20T07:05:55;90126.22;;;-4.51;92.90
76074;BME280;64776;42.636;24.358;2023-12-20T07:08:57;90112.81;;;-4.46;93.69
76074;BME280;64776;42.636;24.358;2023-12-20T07:11:58;90116.22;;;-4.49;92.82
76074;BME280;64776;42.636;24.358;2023-12-20T07:14:58;90114.34;;;-4.52;92.88
76074;BME280;64776;42.636;24.358;2023-12-20T07:17:59;90108.00;;;-4.51;95.32
76074;BME280;64776;42.636;24.358;2023-12-20T07:21:00;90105.00;;;-4.39;94.98
76074;BME280;64776;42.636;24.358;2023-12-20T07:24:02;90104.47;;;-4.17;94.65
76074;BME280;64776;42.636;24.358;2023-12-20T07:27:04;90096.53;;;-3.99;94.39
76074;BME280;64776;42.636;24.358;2023-12-20T07:30:05;90095.66;;;-3.82;94.66
76074;BME280;64776;42.636;24.358;2023-12-20T07:33:06;90093.97;;;-3.55;94.80
76074;BME280;64776;42.636;24.358;2023-12-20T07:36:07;90100.50;;;-3.36;94.98
76074;BME280;64776;42.636;24.358;2023-12-20T07:39:09;90093.69;;;-3.26;94.57
76074;BME280;64776;42.636;24.358;2023-12-20T07:42:10;90088.00;;;-3.18;94.59
76074;BME280;64776;42.636;24.358;2023-12-20T07:45:11;90094.94;;;-3.04;94.14
76074;BME280;64776;42.636;24.358;2023-12-20T07:48:11;90084.75;;;-2.92;93.16
76074;BME280;64776;42.636;24.358;2023-12-20T07:51:13;90080.09;;;-2.77;93.37
76074;BME280;64776;42.636;24.358;2023-12-20T07:54:15;90081.25;;;-2.78;92.61
76074;BME280;64776;42.636;24.358;2023-12-20T07:57:16;90072.19;;;-2.70;92.57
76074;BME280;64776;42.636;24.358;2023-12-20T08:00:17;90074.28;;;-2.58;92.61
76074;BME280;64776;42.636;24.358;2023-12-20T08:03:18;90067.34;;;-2.41;92.64
76074;BME280;64776;42.636;24.358;2023-12-20T08:06:19;90070.47;;;-2.23;93.04
76074;BME280;64776;42.636;24.358;2023-12-20T08:09:21;90068.19;;;-1.95;93.14
76074;BME280;64776;42.636;24.358;2023-12-20T08:12:31;90066.25;;;-1.68;93.41
76074;BME280;64776;42.636;24.358;2023-12-20T08:15:31;90057.88;;;-1.36;92.86
76074;BME280;64776;42.636;24.358;2023-12-20T08:18:32;90059.28;;;-1.08;91.96
76074;BME280;64776;42.636;24.358;2023-12-20T08:21:33;90055.25;;;-0.93;90.45
76074;BME280;64776;42.636;24.358;2023-12-20T08:24:35;90054.31;;;-0.83;89.69
76074;BME280;64776;42.636;24.358;2023-12-20T08:27:40;90044.16;;;-0.61;89.70
76074;BME280;64776;42.636;24.358;2023-12-20T08:30:41;90031.53;;;-0.31;89.51
76074;BME280;64776;42.636;24.358;2023-12-20T08:33:43;90028.47;;;0.07;88.16
76074;BME280;64776;42.636;24.358;2023-12-20T08:36:44;90029.53;;;0.41;86.71
76074;BME280;64776;42.636;24.358;2023-12-20T08:39:46;90020.63;;;0.83;86.25
76074;BME280;64776;42.636;24.358;2023-12-20T08:42:47;90011.38;;;1.20;85.29
76074;BME280;64776;42.636;24.358;2023-12-20T08:45:47;90010.50;;;1.39;84.61
76074;BME280;64776;42.636;24.358;2023-12-20T08:48:48;90006.63;;;1.69;84.00
76074;BME280;64776;42.636;24.358;2023-12-20T08:51:49;89996.88;;;1.95;81.43
76074;BME280;64776;42.636;24.358;2023-12-20T08:54:51;89989.16;;;2.13;80.59
76074;BME280;64776;42.636;24.358;2023-12-20T08:57:52;89977.25;;;2.33;80.79
76074;BME280;64776;42.636;24.358;2023-12-20T09:00:52;89978.78;;;2.56;81.23
76074;BME280;64776;42.636;24.358;2023-12-20T09:03:53;89965.44;;;2.72;80.77
76074;BME280;64776;42.636;24.358;2023-12-20T09:06:54;89966.19;;;2.73;80.80
76074;BME280;64776;42.636;24.358;2023-12-20T09:09:56;89961.88;;;2.66;81.29
76074;BME280;64776;42.636;24.358;2023-12-20T09:12:57;89952.56;;;2.74;81.33
76074;BME280;64776;42.636;24.358;2023-12-20T09:15:58;89949.53;;;2.97;80.87
76074;BME280;64776;42.636;24.358;2023-12-20T09:18:58;89942.66;;;3.21;79.93
76074;BME280;64776;42.636;24.358;2023-12-20T09:21:59;89935.34;;;3.47;78.68
76074;BME280;64776;42.636;24.358;2023-12-20T09:25:01;89928.31;;;3.84;77.66
76074;BME280;64776;42.636;24.358;2023-12-20T09:28:03;89930.13;;;3.96;77.05
76074;BME280;64776;42.636;24.358;2023-12-20T09:31:04;89923.69;;;4.06;77.19
76074;BME280;64776;42.636;24.358;2023-12-20T09:34:05;89918.97;;;3.92;76.38
76074;BME280;64776;42.636;24.358;2023-12-20T09:37:05;89909.28;;;3.89;76.36
76074;BME280;64776;42.636;24.358;2023-12-20T09:40:11;89900.13;;;3.72;76.95
76074;BME280;64776;42.636;24.358;2023-12-20T09:43:15;89899.06;;;4.09;76.43
76074;BME280;64776;42.636;24.358;2023-12-20T09:46:19;89883.88;;;4.40;75.85
76074;BME280;64776;42.636;24.358;2023-12-20T09:49:23;89886.22;;;4.38;76.40
76074;BME280;64776;42.636;24.358;2023-12-20T09:52:26;89888.28;;;4.34;76.88
76074;BME280;64776;42.636;24.358;2023-12-20T09:55:29;89879.16;;;4.35;77.28
76074;BME280;64776;42.636;24.358;2023-12-20T09:58:30;89871.25;;;4.44;78.08
76074;BME280;64776;42.636;24.358;2023-12-20T10:01:31;89868.63;;;4.71;76.97
76074;BME280;64776;42.636;24.358;2023-12-20T10:04:34;89869.88;;;5.21;76.34
76074;BME280;64776;42.636;24.358;2023-12-20T10:07:35;89856.72;;;5.87;75.18
76074;BME280;64776;42.636;24.358;2023-12-20T10:10:37;89842.22;;;6.29;73.91
76074;BME280;64776;42.636;24.358;2023-12-20T10:13:39;89844.69;;;6.56;72.19
76074;BME280;64776;42.636;24.358;2023-12-20T10:16:40;89844.22;;;6.96;70.67
76074;BME280;64776;42.636;24.358;2023-12-20T10:19:42;89843.84;;;7.47;70.72
76074;BME280;64776;42.636;24.358;2023-12-20T10:22:43;89837.00;;;7.90;69.72
76074;BME280;64776;42.636;24.358;2023-12-20T10:25:55;89837.28;;;8.27;68.34
76074;BME280;64776;42.636;24.358;2023-12-20T10:28:59;89823.69;;;8.39;65.99
76074;BME280;64776;42.636;24.358;2023-12-20T10:32:21;89826.38;;;8.59;65.81
76074;BME280;64776;42.636;24.358;2023-12-20T10:35:24;89816.75;;;8.87;67.70
76074;BME280;64776;42.636;24.358;2023-12-20T10:38:24;89811.09;;;9.00;66.38
76074;BME280;64776;42.636;24.358;2023-12-20T10:41:27;89806.44;;;9.21;66.31
76074;BME280;64776;42.636;24.358;2023-12-20T10:44:28;89806.38;;;9.41;65.25
76074;BME280;64776;42.636;24.358;2023-12-20T10:47:30;89800.19;;;9.55;64.49
76074;BME280;64776;42.636;24.358;2023-12-20T10:50:31;89795.47;;;9.70;64.52
76074;BME280;64776;42.636;24.358;2023-12-20T10:53:33;89786.13;;;9.85;63.42
76074;BME280;64776;42.636;24.358;2023-12-20T10:56:36;89787.63;;;9.92;63.36
76074;BME280;64776;42.636;24.358;2023-12-20T10:59:39;89788.63;;;10.00;63.30
76074;BME280;64776;42.636;24.358;2023-12-20T11:02:40;89783.13;;;10.09;63.30
76074;BME280;64776;42.636;24.358;2023-12-20T11:05:46;89782.81;;;10.02;61.52
76074;BME280;64776;42.636;24.358;2023-12-20T11:08:53;89770.31;;;9.76;59.10
76074;BME280;64776;42.636;24.358;2023-12-20T11:12:02;89772.31;;;9.50;59.67
76074;BME280;64776;42.636;24.358;2023-12-20T11:15:06;89776.34;;;9.40;59.65
76074;BME280;64776;42.636;24.358;2023-12-20T11:18:08;89769.72;;;9.30;60.62
76074;BME280;64776;42.636;24.358;2023-12-20T11:21:10;89761.66;;;9.19;61.71
76074;BME280;64776;42.636;24.358;2023-12-20T11:24:11;89756.50;;;9.10;62.42
76074;BME280;64776;42.636;24.358;2023-12-20T11:27:14;89755.91;;;9.26;62.51
76074;BME280;64776;42.636;24.358;2023-12-20T11:30:15;89739.13;;;9.46;63.54
76074;BME280;64776;42.636;24.358;2023-12-20T11:33:16;89741.56;;;9.86;63.95
76074;BME280;64776;42.636;24.358;2023-12-20T11:36:18;89726.03;;;10.27;61.87
76074;BME280;64776;42.636;24.358;2023-12-20T11:39:21;89724.44;;;10.57;58.94
76074;BME280;64776;42.636;24.358;2023-12-20T11:42:23;89720.13;;;10.76;59.21
76074;BME280;64776;42.636;24.358;2023-12-20T11:45:24;89713.84;;;10.79;57.75
76074;BME280;64776;42.636;24.358;2023-12-20T11:48:25;89711.91;;;10.85;56.66
76074;BME280;64776;42.636;24.358;2023-12-20T11:51:26;89703.16;;;10.79;55.26
76074;BME280;64776;42.636;24.358;2023-12-20T11:54:27;89698.06;;;10.76;55.06
76074;BME280;64776;42.636;24.358;2023-12-20T11:57:29;89692.47;;;10.90;56.28
76074;BME280;64776;42.636;24.358;2023-12-20T12:00:30;89685.72;;;11.22;58.01
76074;BME280;64776;42.636;24.358;2023-12-20T12:03:30;89673.31;;;11.36;58.38
76074;BME280;64776;42.636;24.358;2023-12-20T12:06:31;89672.59;;;11.46;57.01
76074;BME280;64776;42.636;24.358;2023-12-20T12:09:32;89666.53;;;11.35;57.76
76074;BME280;64776;42.636;24.358;2023-12-20T12:12:34;89663.13;;;11.01;57.30
76074;BME280;64776;42.636;24.358;2023-12-20T12:15:36;89660.88;;;10.50;57.28
76074;BME280;64776;42.636;24.358;2023-12-20T12:18:37;89658.78;;;10.01;59.50
76074;BME280;64776;42.636;24.358;2023-12-20T12:21:37;89664.38;;;9.60;61.18
76074;BME280;64776;42.636;24.358;2023-12-20T12:24:38;89662.31;;;9.33;62.14
76074;BME280;64776;42.636;24.358;2023-12-20T12:27:43;89664.38;;;9.18;62.87
76074;BME280;64776;42.636;24.358;2023-12-20T12:30:55;89656.94;;;8.96;63.00
76074;BME280;64776;42.636;24.358;2023-12-20T12:33:56;89656.31;;;8.76;63.40
76074;BME280;64776;42.636;24.358;2023-12-20T12:36:57;89653.31;;;8.63;64.71
76074;BME280;64776;42.636;24.358;2023-12-20T12:39:57;89665.31;;;8.53;63.96
76074;BME280;64776;42.636;24.358;2023-12-20T12:43:00;89658.47;;;8.46;65.97
76074;BME280;64776;42.636;24.358;2023-12-20T12:46:02;89662.78;;;8.44;65.67
76074;BME280;64776;42.636;24.358;2023-12-20T12:49:02;89654.19;;;8.29;65.61
76074;BME280;64776;42.636;24.358;2023-12-20T12:52:04;89655.59;;;8.04;65.73
76074;BME280;64776;42.636;24.358;2023-12-20T12:55:05;89651.31;;;7.86;67.45
76074;BME280;64776;42.636;24.358;2023-12-20T12:58:07;89652.22;;;7.83;67.21
76074;BME280;64776;42.636;24.358;2023-12-20T13:01:08;89646.59;;;7.76;67.35
76074;BME280;64776;42.636;24.358;2023-12-20T13:04:09;89653.09;;;7.75;67.66
76074;BME280;64776;42.636;24.358;2023-12-20T13:07:10;89651.69;;;7.79;68.16
76074;BME280;64776;42.636;24.358;2023-12-20T13:10:10;89652.56;;;7.91;68.66
76074;BME280;64776;42.636;24.358;2023-12-20T13:13:13;89655.59;;;8.04;68.35
76074;BME280;64776;42.636;24.358;2023-12-20T13:16:14;89656.06;;;8.02;67.88
76074;BME280;64776;42.636;24.358;2023-12-20T13:19:15;89649.03;;;7.99;68.35
76074;BME280;64776;42.636;24.358;2023-12-20T13:22:15;89654.09;;;7.97;67.75
76074;BME280;64776;42.636;24.358;2023-12-20T13:25:16;89647.44;;;7.87;68.04
76074;BME280;64776;42.636;24.358;2023-12-20T13:28:18;89642.75;;;7.77;68.41
76074;BME280;64776;42.636;24.358;2023-12-20T13:31:19;89647.66;;;7.64;69.11
76074;BME280;64776;42.636;24.358;2023-12-20T13:34:20;89637.38;;;7.51;69.17
76074;BME280;64776;42.636;24.358;2023-12-20T13:37:21;89631.78;;;7.29;69.77
76074;BME280;64776;42.636;24.358;2023-12-20T13:40:22;89634.41;;;7.09;70.64
76074;BME280;64776;42.636;24.358;2023-12-20T13:43:24;89631.16;;;6.85;71.20
76074;BME280;64776;42.636;24.358;2023-12-20T13:46:25;89632.47;;;6.60;71.90
76074;BME280;64776;42.636;24.358;2023-12-20T13:49:25;89636.31;;;6.44;72.18
76074;BME280;64776;42.636;24.358;2023-12-20T13:52:26;89631.22;;;6.26;72.87
76074;BME280;64776;42.636;24.358;2023-12-20T13:55:28;89631.75;;;6.01;74.52
76074;BME280;64776;42.636;24.358;2023-12-20T13:58:30;89634.91;;;5.67;76.08
76074;BME280;64776;42.636;24.358;2023-12-20T14:01:30;89631.19;;;5.12;79.42
76074;BME280;64776;42.636;24.358;2023-12-20T14:04:31;89630.41;;;5.20;77.49
76074;BME280;64776;42.636;24.358;2023-12-20T14:07:32;89630.16;;;5.09;79.00
76074;BME280;64776;42.636;24.358;2023-12-20T14:10:33;89629.00;;;5.10;78.28
76074;BME280;64776;42.636;24.358;2023-12-20T14:13:35;89627.22;;;5.07;78.86
76074;BME280;64776;42.636;24.358;2023-12-20T14:16:36;89618.66;;;4.88;78.94
76074;BME280;64776;42.636;24.358;2023-12-20T14:19:36;89615.63;;;4.81;79.35
76074;BME280;64776;42.636;24.358;2023-12-20T14:22:37;89620.22;;;4.71;79.11
76074;BME280;64776;42.636;24.358;2023-12-20T14:25:38;89621.59;;;4.16;83.04
76074;BME280;64776;42.636;24.358;2023-12-20T14:28:40;89617.75;;;4.26;82.15
76074;BME280;64776;42.636;24.358;2023-12-20T14:31:41;89614.91;;;3.97;83.46
76074;BME280;64776;42.636;24.358;2023-12-20T14:34:42;89615.19;;;4.08;83.33
76074;BME280;64776;42.636;24.358;2023-12-20T14:37:42;89614.28;;;4.11;82.52
76074;BME280;64776;42.636;24.358;2023-12-20T14:40:43;89620.78;;;3.83;84.15
76074;BME280;64776;42.636;24.358;2023-12-20T14:43:45;89607.59;;;3.65;84.73
76074;BME280;64776;42.636;24.358;2023-12-20T14:46:46;89619.63;;;3.75;84.81
76074;BME280;64776;42.636;24.358;2023-12-20T14:49:47;89610.84;;;3.69;84.00
76074;BME280;64776;42.636;24.358;2023-12-20T14:52:48;89616.69;;;3.55;84.90
76074;BME280;64776;42.636;24.358;2023-12-20T14:55:48;89614.06;;;3.55;84.92
76074;BME280;64776;42.636;24.358;2023-12-20T14:58:50;89608.19;;;3.33;84.99
76074;BME280;64776;42.636;24.358;2023-12-20T15:01:51;89622.56;;;3.22;86.09
76074;BME280;64776;42.636;24.358;2023-12-20T15:04:52;89617.84;;;3.17;85.59
76074;BME280;64776;42.636;24.358;2023-12-20T15:07:53;89619.59;;;2.93;87.12
76074;BME280;64776;42.636;24.358;2023-12-20T15:10:53;89617.09;;;2.99;86.85
76074;BME280;64776;42.636;24.358;2023-12-20T15:13:56;89615.22;;;3.08;86.70
76074;BME280;64776;42.636;24.358;2023-12-20T15:16:56;89622.69;;;3.01;88.01
76074;BME280;64776;42.636;24.358;2023-12-20T15:19:58;89616.94;;;2.93;88.36
76074;BME280;64776;42.636;24.358;2023-12-20T15:22:59;89615.50;;;2.92;87.82
76074;BME280;64776;42.636;24.358;2023-12-20T15:26:00;89619.13;;;2.86;87.88
76074;BME280;64776;42.636;24.358;2023-12-20T15:29:02;89628.50;;;2.87;87.23
76074;BME280;64776;42.636;24.358;2023-12-20T15:32:03;89622.50;;;2.86;87.26
76074;BME280;64776;42.636;24.358;2023-12-20T15:35:05;89617.25;;;2.86;88.13
76074;BME280;64776;42.636;24.358;2023-12-20T15:38:06;89620.44;;;2.81;88.22
76074;BME280;64776;42.636;24.358;2023-12-20T15:41:07;89625.06;;;2.68;89.07
76074;BME280;64776;42.636;24.358;2023-12-20T15:44:09;89622.75;;;2.70;89.11
76074;BME280;64776;42.636;24.358;2023-12-20T15:47:10;89625.47;;;2.48;89.60
76074;BME280;64776;42.636;24.358;2023-12-20T15:50:11;89615.22;;;2.51;89.46
76074;BME280;64776;42.636;24.358;2023-12-20T15:53:12;89620.66;;;2.47;89.13
76074;BME280;64776;42.636;24.358;2023-12-20T15:56:13;89615.38;;;2.47;89.26